createdAt,value
2022-10-17T00:02:03.500Z,7.22
2022-10-17T00:04:30.035Z,6.90
2022-10-17T00:06:56.454Z,7.70
2022-10-17T00:09:22.785Z,7.53
2022-10-17T00:11:49.086Z,6.72
2022-10-17T00:14:15.548Z,7.78
2022-10-17T00:16:42.008Z,7.47
2022-10-17T00:19:08.412Z,6.60
2022-10-17T00:21:34.829Z,7.15
2022-10-17T00:24:01.511Z,7.15
2022-10-17T00:26:29.662Z,6.82
2022-10-17T00:28:56.693Z,7.10
2022-10-17T00:31:23.903Z,7.38
2022-10-17T00:33:50.790Z,6.78
2022-10-17T00:36:21.595Z,6.97
2022-10-17T00:38:49.820Z,7.15
2022-10-17T00:41:18.279Z,6.28
2022-10-17T00:44:03.103Z,6.88
2022-10-17T00:46:30.939Z,5.78
2022-10-17T00:48:58.828Z,7.47
2022-10-17T00:51:33.928Z,6.93
2022-10-17T00:54:01.249Z,6.63
2022-10-17T00:56:27.765Z,6.40
2022-10-17T00:58:55.212Z,6.50
2022-10-17T01:01:21.782Z,7.38
2022-10-17T01:03:48.133Z,7.15
2022-10-17T01:06:14.843Z,7.10
2022-10-17T01:08:41.239Z,7.40
2022-10-17T01:11:24.808Z,7.70
2022-10-17T01:14:03.382Z,7.13
2022-10-17T01:16:38.895Z,7.30
2022-10-17T01:19:14.224Z,6.88
2022-10-17T01:24:10.013Z,5.93
2022-10-17T01:26:36.284Z,8.23
2022-10-17T01:29:20.745Z,7.53
2022-10-17T01:31:55.874Z,8.88
2022-10-17T01:34:28.721Z,7.85
2022-10-17T01:36:59.970Z,7.32
2022-10-17T01:39:28.110Z,8.05
2022-10-17T01:42:02.760Z,8.07
2022-10-17T01:44:38.639Z,7.65
2022-10-17T01:47:10.176Z,6.78
2022-10-17T01:49:37.551Z,8.02
2022-10-17T01:52:10.199Z,7.28
2022-10-17T01:54:36.563Z,6.32
2022-10-17T01:57:05.543Z,8.05
2022-10-17T01:59:40.886Z,7.10
2022-10-17T02:04:34.899Z,8.52
2022-10-17T02:07:10.871Z,6.43
2022-10-17T02:09:37.445Z,7.80
2022-10-17T02:12:23.172Z,6.95
2022-10-17T02:17:40.391Z,6.60
2022-10-17T02:20:10.031Z,6.65
2022-10-17T02:22:36.303Z,7.82
2022-10-17T02:25:12.054Z,7.22
2022-10-17T02:27:38.417Z,6.85
2022-10-17T02:30:17.545Z,7.55
2022-10-17T02:32:50.161Z,6.55
2022-10-17T02:35:17.980Z,7.85
2022-10-17T02:37:45.825Z,7.15
2022-10-17T02:40:14.539Z,6.80
2022-10-17T02:42:43.140Z,7.03
2022-10-17T02:45:10.071Z,6.75
2022-10-17T02:47:55.210Z,7.07
2022-10-17T02:50:23.428Z,6.50
2022-10-17T02:52:55.564Z,6.18
2022-10-17T02:55:34.436Z,7.35
2022-10-17T02:58:03.717Z,6.93
2022-10-17T03:00:30.138Z,6.50
2022-10-17T03:02:56.620Z,7.47
2022-10-17T03:05:24.774Z,6.50
2022-10-17T03:07:51.465Z,6.20
2022-10-17T03:10:18.186Z,7.03
2022-10-17T03:12:44.858Z,7.70
2022-10-17T03:15:11.830Z,6.32
2022-10-17T03:17:38.327Z,8.60
2022-10-17T03:20:05.645Z,6.53
2022-10-17T03:22:32.722Z,6.82
2022-10-17T03:24:59.341Z,8.15
2022-10-17T03:27:25.809Z,8.95
2022-10-17T03:29:52.121Z,7.38
2022-10-17T03:32:18.613Z,7.95
2022-10-17T03:34:44.964Z,7.45
2022-10-17T03:37:11.381Z,8.77
2022-10-17T03:39:37.660Z,8.15
2022-10-17T03:42:05.669Z,7.78
2022-10-17T03:44:34.936Z,9.23
2022-10-17T03:47:01.670Z,8.68
2022-10-17T03:49:28.097Z,7.55
2022-10-17T03:51:54.433Z,9.15
2022-10-17T03:54:20.732Z,8.48
2022-10-17T03:56:47.319Z,8.57
2022-10-17T03:59:14.600Z,8.90
2022-10-17T04:01:41.624Z,7.80
2022-10-17T04:04:08.484Z,8.25
2022-10-17T04:06:35.022Z,8.82
2022-10-17T04:09:01.469Z,8.27
2022-10-17T04:11:27.886Z,8.45
2022-10-17T04:13:55.243Z,8.13
2022-10-17T04:16:21.819Z,9.00
2022-10-17T04:18:52.306Z,8.63
2022-10-17T04:21:19.192Z,8.65
2022-10-17T04:23:45.536Z,8.98
2022-10-17T04:26:11.929Z,7.55
2022-10-17T04:31:11.819Z,8.48
2022-10-17T04:33:38.544Z,7.82
2022-10-17T04:36:06.389Z,7.50
2022-10-17T04:38:33.405Z,8.80
2022-10-17T04:41:03.645Z,7.80
2022-10-17T04:43:30.679Z,8.57
2022-10-17T04:45:57.757Z,7.70
2022-10-17T04:48:24.292Z,8.50
2022-10-17T04:50:57.604Z,8.95
2022-10-17T04:53:24.458Z,8.52
2022-10-17T04:55:50.991Z,8.52
2022-10-17T04:58:17.485Z,9.23
2022-10-17T05:00:44.203Z,9.20
2022-10-17T05:03:10.551Z,8.02
2022-10-17T05:05:38.325Z,8.90
2022-10-17T05:08:05.298Z,8.93
2022-10-17T05:10:36.444Z,9.38
2022-10-17T05:13:02.850Z,9.30
2022-10-17T05:15:31.552Z,8.05
2022-10-17T05:17:58.212Z,7.20
2022-10-17T05:20:24.877Z,8.75
2022-10-17T05:22:51.306Z,7.72
2022-10-17T05:25:17.642Z,9.43
2022-10-17T05:27:44.084Z,8.63
2022-10-17T05:30:10.517Z,7.50
2022-10-17T05:32:36.888Z,8.27
2022-10-17T05:35:04.323Z,8.00
2022-10-17T05:37:31.599Z,7.38
2022-10-17T05:39:57.999Z,8.32
2022-10-17T05:42:24.499Z,6.90
2022-10-17T05:44:50.903Z,7.00
2022-10-17T05:47:17.237Z,6.90
2022-10-17T05:49:48.616Z,7.65
2022-10-17T05:52:17.700Z,6.80
2022-10-17T05:54:43.990Z,7.90
2022-10-17T05:57:10.457Z,6.93
2022-10-17T05:59:38.225Z,8.50
2022-10-17T06:02:04.612Z,6.78
2022-10-17T06:04:30.924Z,7.45
2022-10-17T06:06:57.418Z,6.80
2022-10-17T06:09:23.911Z,6.55
2022-10-17T06:11:50.221Z,9.40
2022-10-17T06:14:16.601Z,8.93
2022-10-17T06:16:43.709Z,9.25
2022-10-17T06:19:11.583Z,9.77
2022-10-17T06:21:38.856Z,9.60
2022-10-17T06:24:05.181Z,8.90
2022-10-17T06:26:31.525Z,8.43
2022-10-17T06:28:57.977Z,8.98
2022-10-17T06:31:24.335Z,8.75
2022-10-17T06:33:50.633Z,8.55
2022-10-17T06:36:17.733Z,8.35
2022-10-17T06:38:44.034Z,9.10
2022-10-17T06:41:13.288Z,9.38
2022-10-17T06:43:40.386Z,9.07
2022-10-17T06:46:06.820Z,9.25
2022-10-17T06:48:33.500Z,9.13
2022-10-17T06:51:00.573Z,8.25
2022-10-17T06:53:28.491Z,8.52
2022-10-17T06:55:55.371Z,8.52
2022-10-17T06:58:22.220Z,7.65
2022-10-17T07:00:48.651Z,8.50
2022-10-17T07:03:15.115Z,8.90
2022-10-17T07:05:41.405Z,9.10
2022-10-17T07:08:07.822Z,9.02
2022-10-17T07:10:38.232Z,8.90
2022-10-17T07:13:04.570Z,8.60
2022-10-17T07:15:32.393Z,8.98
2022-10-17T07:17:58.665Z,8.82
2022-10-17T07:20:25.106Z,8.60
2022-10-17T07:22:51.502Z,9.32
2022-10-17T07:25:17.836Z,8.15
2022-10-17T07:27:44.145Z,8.00
2022-10-17T07:30:10.703Z,9.43
2022-10-17T07:32:37.221Z,9.27
2022-10-17T07:35:03.603Z,9.02
2022-10-17T07:37:30.318Z,8.48
2022-10-17T07:39:56.906Z,8.85
2022-10-17T07:42:23.493Z,8.63
2022-10-17T07:44:49.759Z,9.52
2022-10-17T07:47:16.160Z,8.38
2022-10-17T07:49:44.090Z,9.20
2022-10-17T07:52:11.732Z,8.98
2022-10-17T07:54:38.067Z,9.25
2022-10-17T07:57:04.633Z,7.88
2022-10-17T07:59:32.340Z,7.80
2022-10-17T08:01:59.407Z,5.78
2022-10-17T08:04:26.315Z,6.40
2022-10-17T08:06:56.407Z,7.65
2022-10-17T08:09:26.889Z,8.13
2022-10-17T08:11:54.019Z,6.53
2022-10-17T08:14:20.446Z,6.93
2022-10-17T08:16:46.729Z,6.93
2022-10-17T08:19:13.143Z,6.45
2022-10-17T08:21:39.437Z,6.85
2022-10-17T08:24:05.809Z,6.80
2022-10-17T08:26:32.171Z,7.40
2022-10-17T08:28:58.563Z,7.88
2022-10-17T08:31:24.972Z,7.78
2022-10-17T08:33:51.296Z,7.70
2022-10-17T08:36:18.471Z,8.05
2022-10-17T08:38:47.989Z,8.48
2022-10-17T08:41:20.803Z,8.50
2022-10-17T08:43:55.388Z,8.30
2022-10-17T08:46:21.804Z,9.40
2022-10-17T08:48:49.424Z,8.45
2022-10-17T08:51:21.687Z,8.43
2022-10-17T08:53:57.945Z,8.48
2022-10-17T08:56:44.139Z,7.72
2022-10-17T08:59:17.669Z,8.43
2022-10-17T09:01:48.396Z,8.48
2022-10-17T09:04:33.483Z,7.97
2022-10-17T09:07:05.456Z,9.18
2022-10-17T09:09:34.934Z,9.02
2022-10-17T09:12:10.159Z,8.38
2022-10-17T09:17:09.519Z,8.07
2022-10-17T09:19:38.157Z,9.00
2022-10-17T09:22:09.353Z,8.73
2022-10-17T09:24:55.735Z,8.02
2022-10-17T09:27:33.768Z,8.38
2022-10-17T09:30:40.524Z,8.35
2022-10-17T09:33:34.672Z,7.95
2022-10-17T09:36:05.450Z,8.75
2022-10-17T09:38:37.834Z,6.45
2022-10-17T09:41:15.797Z,7.32
2022-10-17T09:43:55.796Z,7.15
2022-10-17T09:46:34.831Z,8.00
2022-10-17T09:49:21.360Z,8.80
2022-10-17T09:51:48.114Z,8.48
2022-10-17T09:54:23.166Z,8.15
2022-10-17T09:57:03.608Z,7.90
2022-10-17T09:59:34.722Z,8.40
2022-10-17T10:02:13.123Z,7.93
2022-10-17T10:05:07.085Z,9.27
2022-10-17T10:07:35.468Z,13.00
2022-10-17T10:10:03.901Z,10.10
2022-10-17T10:12:32.480Z,8.32
2022-10-17T10:14:58.964Z,6.95
2022-10-17T10:17:33.510Z,6.95
2022-10-17T10:19:59.932Z,7.00
2022-10-17T10:22:26.751Z,6.70
2022-10-17T10:25:15.136Z,8.60
2022-10-17T10:27:42.286Z,7.78
2022-10-17T10:30:17.411Z,8.60
2022-10-17T10:32:45.522Z,8.93
2022-10-17T10:35:34.807Z,9.75
2022-10-17T10:38:02.166Z,9.55
2022-10-17T10:40:33.668Z,9.18
2022-10-17T10:43:05.111Z,8.48
2022-10-17T10:45:53.050Z,9.15
2022-10-17T10:48:24.026Z,8.73
2022-10-17T10:51:00.748Z,10.00
2022-10-17T10:53:38.750Z,9.73
2022-10-17T10:56:05.169Z,8.82
2022-10-17T10:58:51.790Z,8.35
2022-10-17T11:01:27.558Z,8.30
2022-10-17T11:03:56.907Z,8.40
2022-10-17T11:06:26.206Z,8.30
2022-10-17T11:08:57.732Z,8.30
2022-10-17T11:11:39.014Z,6.40
2022-10-17T11:14:13.009Z,8.52
2022-10-17T11:16:43.529Z,10.10
2022-10-17T11:19:25.354Z,10.07
2022-10-17T11:21:58.225Z,9.90
2022-10-17T11:24:27.966Z,11.18
2022-10-17T11:27:01.353Z,11.38
2022-10-17T11:29:32.376Z,9.23
2022-10-17T11:32:03.088Z,10.75
2022-10-17T11:34:31.095Z,9.90
2022-10-17T11:37:02.318Z,10.68
2022-10-17T11:39:39.160Z,9.75
2022-10-17T11:42:08.873Z,9.23
2022-10-17T11:44:37.037Z,7.80
2022-10-17T11:47:06.376Z,8.63
2022-10-17T11:49:39.911Z,9.50
2022-10-17T11:52:08.082Z,9.68
2022-10-17T11:54:54.582Z,6.68
2022-10-17T11:57:21.104Z,9.20
2022-10-17T11:59:58.279Z,10.63
2022-10-17T12:02:47.961Z,10.40
2022-10-17T12:05:24.116Z,10.02
2022-10-17T12:08:08.975Z,8.95
2022-10-17T12:10:56.987Z,9.75
2022-10-17T12:13:29.707Z,8.60
2022-10-17T12:15:57.102Z,9.80
2022-10-17T12:18:25.515Z,9.43
2022-10-17T12:20:58.543Z,8.68
2022-10-17T12:23:28.892Z,9.80
2022-10-17T12:25:57.129Z,9.25
2022-10-17T12:28:29.306Z,9.07
2022-10-17T12:31:13.620Z,8.98
2022-10-17T12:33:45.856Z,9.45
2022-10-17T12:36:27.111Z,9.35
2022-10-17T12:39:02.439Z,10.57
2022-10-17T12:41:40.902Z,10.57
2022-10-17T12:44:10.243Z,11.35
2022-10-17T12:46:51.902Z,10.88
2022-10-17T12:49:22.480Z,12.57
2022-10-17T12:52:05.942Z,11.68
2022-10-17T12:54:47.133Z,12.10
2022-10-17T12:57:22.096Z,12.20
2022-10-17T12:59:48.727Z,13.07
2022-10-17T13:02:22.194Z,12.32
2022-10-17T13:04:50.231Z,12.45
2022-10-17T13:07:18.997Z,13.63
2022-10-17T13:09:45.385Z,12.13
2022-10-17T13:12:15.077Z,12.48
2022-10-17T13:14:42.731Z,13.15
2022-10-17T13:17:26.583Z,12.90
2022-10-17T13:19:53.234Z,13.98
2022-10-17T13:22:21.309Z,13.77
2022-10-17T13:24:48.235Z,13.02
2022-10-17T13:27:28.490Z,13.63
2022-10-17T13:29:56.451Z,15.95
2022-10-17T13:32:23.783Z,15.63
2022-10-17T13:35:24.405Z,14.18
2022-10-17T13:37:53.987Z,15.70
2022-10-17T13:40:44.049Z,14.80
2022-10-17T13:43:13.365Z,13.68
2022-10-17T13:45:39.664Z,15.63
2022-10-17T13:48:08.249Z,15.40
2022-10-17T13:50:44.808Z,15.68
2022-10-17T13:53:30.708Z,15.23
2022-10-17T13:56:22.848Z,16.50
2022-10-17T13:58:46.986Z,15.27
2022-10-17T14:01:14.228Z,10.68
2022-10-17T14:03:48.133Z,16.50
2022-10-17T14:06:18.167Z,16.13
2022-10-17T14:08:49.751Z,17.00
2022-10-17T14:11:20.895Z,17.23
2022-10-17T14:13:51.296Z,16.10
2022-10-17T14:16:17.698Z,17.70
2022-10-17T14:18:47.714Z,16.20
2022-10-17T14:24:14.120Z,17.52
2022-10-17T14:26:47.480Z,16.88
2022-10-17T14:29:25.122Z,19.25
2022-10-17T14:31:57.445Z,20.20
2022-10-17T14:34:25.036Z,18.60
2022-10-17T14:36:51.997Z,18.38
2022-10-17T14:39:20.250Z,17.58
2022-10-17T14:41:47.156Z,18.55
2022-10-17T14:44:19.495Z,16.80
2022-10-17T14:46:50.534Z,17.63
2022-10-17T14:49:24.299Z,18.02
2022-10-17T14:52:23.554Z,17.17
2022-10-17T14:54:49.987Z,16.50
2022-10-17T14:57:34.795Z,16.95
2022-10-17T15:00:01.405Z,19.80
2022-10-17T15:02:29.051Z,18.83
2022-10-17T15:04:55.748Z,16.98
2022-10-17T15:07:22.362Z,17.90
2022-10-17T15:09:49.823Z,17.92
2022-10-17T15:12:17.495Z,18.45
2022-10-17T15:14:44.327Z,16.45
2022-10-17T15:17:15.346Z,14.50
2022-10-17T15:19:41.700Z,15.63
2022-10-17T15:22:07.979Z,15.00
2022-10-17T15:24:34.283Z,16.48
2022-10-17T15:27:00.630Z,15.88
2022-10-17T15:29:26.956Z,15.65
2022-10-17T15:31:53.332Z,16.50
2022-10-17T15:34:19.597Z,17.58
2022-10-17T15:36:49.623Z,15.68
2022-10-17T15:39:15.981Z,15.70
2022-10-17T15:41:42.295Z,16.23
2022-10-17T15:44:08.597Z,17.38
2022-10-17T15:46:35.500Z,19.85
2022-10-17T15:49:03.528Z,25.77
2022-10-17T15:51:29.837Z,19.13
2022-10-17T15:53:56.128Z,19.05
2022-10-17T15:56:26.864Z,18.58
2022-10-17T15:58:53.327Z,21.20
2022-10-17T16:01:22.008Z,21.17
2022-10-17T16:03:50.236Z,19.55
2022-10-17T16:06:17.892Z,19.48
2022-10-17T16:08:44.485Z,18.10
2022-10-17T16:11:25.037Z,17.55
2022-10-17T16:13:52.534Z,16.30
2022-10-17T16:16:19.042Z,15.77
2022-10-17T16:18:45.314Z,17.20
2022-10-17T16:21:13.756Z,15.27
2022-10-17T16:23:40.128Z,14.98
2022-10-17T16:26:07.281Z,15.00
2022-10-17T16:28:33.957Z,14.95
2022-10-17T16:31:00.467Z,14.73
2022-10-17T16:33:26.807Z,15.70
2022-10-17T16:35:53.225Z,14.50
2022-10-17T16:38:19.507Z,16.67
2022-10-17T16:40:45.773Z,19.80
2022-10-17T16:43:12.736Z,16.90
2022-10-17T16:45:39.481Z,16.10
2022-10-17T16:48:06.231Z,16.33
2022-10-17T16:50:35.756Z,15.77
2022-10-17T16:53:03.284Z,14.50
2022-10-17T16:55:29.614Z,12.85
2022-10-17T16:57:56.041Z,12.90
2022-10-17T17:00:22.414Z,12.63
2022-10-17T17:02:48.959Z,14.02
2022-10-17T17:05:15.552Z,11.65
2022-10-17T17:07:41.903Z,12.65
2022-10-17T17:10:08.436Z,12.50
2022-10-17T17:12:35.655Z,13.82
2022-10-17T17:15:02.521Z,11.50
2022-10-17T17:17:37.156Z,12.73
2022-10-17T17:20:11.011Z,10.93
2022-10-17T17:22:37.292Z,12.40
2022-10-17T17:25:03.757Z,12.80
2022-10-17T17:27:30.328Z,11.05
2022-10-17T17:29:56.848Z,12.00
2022-10-17T17:32:23.171Z,11.50
2022-10-17T17:34:49.636Z,10.52
2022-10-17T17:37:16.048Z,11.82
2022-10-17T17:39:42.762Z,11.18
2022-10-17T17:42:09.235Z,15.32
2022-10-17T17:44:35.570Z,11.88
2022-10-17T17:47:02.258Z,11.60
2022-10-17T17:49:28.656Z,11.27
2022-10-17T17:51:54.972Z,11.32
2022-10-17T17:54:21.496Z,11.27
2022-10-17T17:56:47.808Z,11.98
2022-10-17T17:59:14.143Z,10.07
2022-10-17T18:01:40.709Z,11.15
2022-10-17T18:04:11.326Z,11.68
2022-10-17T18:06:38.369Z,11.10
2022-10-17T18:09:05.560Z,12.10
2022-10-17T18:11:31.990Z,10.82
2022-10-17T18:14:02.858Z,10.48
2022-10-17T18:16:30.214Z,10.85
2022-10-17T18:18:56.768Z,11.32
2022-10-17T18:21:23.451Z,11.63
2022-10-17T18:23:50.333Z,11.90
2022-10-17T18:26:17.053Z,9.90
2022-10-17T18:28:44.335Z,11.43
2022-10-17T18:31:12.369Z,10.10
2022-10-17T18:33:39.544Z,10.10
2022-10-17T18:36:07.418Z,12.02
2022-10-17T18:38:33.997Z,12.10
2022-10-17T18:41:09.343Z,10.60
2022-10-17T18:43:36.639Z,10.70
2022-10-17T18:46:04.752Z,10.02
2022-10-17T18:48:32.522Z,10.80
2022-10-17T18:50:59.314Z,11.00
2022-10-17T18:53:25.794Z,11.15
2022-10-17T18:55:52.522Z,10.98
2022-10-17T18:58:19.614Z,11.13
2022-10-17T19:00:46.051Z,11.10
2022-10-17T19:03:12.606Z,10.75
2022-10-17T19:05:39.983Z,10.57
2022-10-17T19:08:06.539Z,12.20
2022-10-17T19:10:33.301Z,10.90
2022-10-17T19:13:00.053Z,12.85
2022-10-17T19:15:27.352Z,10.75
2022-10-17T19:17:53.673Z,11.65
2022-10-17T19:20:20.061Z,12.32
2022-10-17T19:22:46.514Z,11.02
2022-10-17T19:25:13.157Z,12.27
2022-10-17T19:27:39.585Z,11.05
2022-10-17T19:30:06.410Z,11.60
2022-10-17T19:32:33.190Z,11.43
2022-10-17T19:34:59.779Z,12.88
2022-10-17T19:37:26.218Z,11.82
2022-10-17T19:39:52.573Z,11.73
2022-10-17T19:42:18.942Z,12.05
2022-10-17T19:44:45.723Z,12.82
2022-10-17T19:47:12.109Z,11.98
2022-10-17T19:49:43.609Z,13.02
2022-10-17T19:52:13.035Z,13.00
2022-10-17T19:54:41.006Z,12.07
2022-10-17T19:57:10.444Z,12.27
2022-10-17T19:59:37.359Z,12.75
2022-10-17T20:02:03.996Z,11.07
2022-10-17T20:04:30.668Z,12.07
2022-10-17T20:06:59.829Z,12.35
2022-10-17T20:09:26.800Z,13.75
2022-10-17T20:11:53.754Z,12.32
2022-10-17T20:14:20.333Z,13.13
2022-10-17T20:16:51.024Z,12.45
2022-10-17T20:19:23.320Z,13.32
2022-10-17T20:21:50.043Z,12.65
2022-10-17T20:24:18.723Z,12.95
2022-10-17T20:26:45.216Z,12.13
2022-10-17T20:29:13.732Z,13.15
2022-10-17T20:31:40.980Z,12.90
2022-10-17T20:34:07.295Z,13.32
2022-10-17T20:36:37.218Z,13.32
2022-10-17T20:39:04.610Z,11.82
2022-10-17T20:41:30.976Z,12.57
2022-10-17T20:43:57.380Z,12.00
2022-10-17T20:46:36.933Z,11.98
2022-10-17T20:49:04.699Z,10.95
2022-10-17T20:51:31.090Z,12.65
2022-10-17T20:53:57.897Z,12.00
2022-10-17T20:56:26.932Z,11.35
2022-10-17T20:58:57.752Z,11.77
2022-10-17T21:01:25.409Z,12.23
2022-10-17T21:03:51.860Z,11.57
2022-10-17T21:06:21.669Z,11.50
2022-10-17T21:08:48.443Z,11.35
2022-10-17T21:11:17.702Z,11.82
2022-10-17T21:13:44.303Z,13.48
2022-10-17T21:16:17.692Z,13.85
2022-10-17T21:18:44.722Z,11.30
2022-10-17T21:21:18.861Z,11.27
2022-10-17T21:23:46.617Z,12.13
2022-10-17T21:26:13.509Z,12.23
2022-10-17T21:28:40.790Z,12.32
2022-10-17T21:31:17.701Z,11.23
2022-10-17T21:33:45.756Z,11.57
2022-10-17T21:36:13.753Z,9.88
2022-10-17T21:38:40.440Z,11.75
2022-10-17T21:41:07.752Z,11.65
2022-10-17T21:43:34.743Z,11.73
2022-10-17T21:46:02.080Z,10.45
2022-10-17T21:48:28.612Z,11.20
2022-10-17T21:51:01.532Z,11.88
2022-10-17T21:53:28.104Z,11.15
2022-10-17T21:56:04.903Z,11.07
2022-10-17T21:58:31.394Z,9.85
2022-10-17T22:01:11.567Z,10.13
2022-10-17T22:03:44.086Z,10.27
2022-10-17T22:09:00.810Z,9.45
2022-10-17T22:11:29.095Z,8.98
2022-10-17T22:14:00.032Z,10.27
2022-10-17T22:16:35.557Z,9.63
2022-10-17T22:19:06.090Z,9.27
2022-10-17T22:21:33.559Z,9.75
2022-10-17T22:24:00.971Z,9.73
2022-10-17T22:26:28.308Z,8.15
2022-10-17T22:28:54.962Z,8.93
2022-10-17T22:31:21.672Z,8.77
2022-10-17T22:33:48.197Z,7.68
2022-10-17T22:36:14.987Z,7.55
2022-10-17T22:38:41.450Z,7.55
2022-10-17T22:41:10.066Z,7.70
2022-10-17T22:43:36.371Z,8.18
2022-10-17T22:46:03.835Z,7.65
2022-10-17T22:48:30.837Z,7.93
2022-10-17T22:50:58.063Z,10.40
2022-10-17T22:53:26.421Z,8.98
2022-10-17T22:55:53.947Z,8.90
2022-10-17T22:58:20.716Z,8.43
2022-10-17T23:00:47.783Z,6.93
2022-10-17T23:03:14.504Z,7.53
2022-10-17T23:05:40.928Z,8.18
2022-10-17T23:08:07.262Z,7.13
2022-10-17T23:10:33.828Z,6.82
2022-10-17T23:13:00.231Z,6.72
2022-10-17T23:15:26.573Z,6.80
2022-10-17T23:17:53.152Z,6.68
2022-10-17T23:20:19.701Z,6.38
2022-10-17T23:22:46.152Z,6.15
2022-10-17T23:25:12.560Z,6.35
2022-10-17T23:27:38.948Z,6.72
2022-10-17T23:30:05.554Z,7.03
2022-10-17T23:32:32.337Z,7.22
2022-10-17T23:34:59.049Z,6.97
2022-10-17T23:37:28.772Z,7.43
2022-10-17T23:39:55.200Z,8.32
2022-10-17T23:42:21.630Z,6.68
2022-10-17T23:44:48.060Z,6.35
2022-10-17T23:47:14.408Z,6.38
2022-10-17T23:49:40.828Z,7.32
2022-10-17T23:52:07.216Z,6.97
2022-10-17T23:54:33.884Z,6.40
2022-10-17T23:57:00.477Z,6.47
2022-10-17T23:59:26.867Z,7.13
